createdAt,value
2022-11-16T00:01:22.813Z,12.15
2022-11-16T00:05:34.408Z,12.13
2022-11-16T00:09:46.676Z,12.10
2022-11-16T00:13:58.329Z,12.12
2022-11-16T00:18:09.983Z,12.13
2022-11-16T00:22:21.557Z,12.14
2022-11-16T00:26:33.211Z,12.16
2022-11-16T00:30:44.929Z,12.19
2022-11-16T00:34:56.543Z,12.14
2022-11-16T00:39:11.740Z,12.12
2022-11-16T00:43:23.395Z,12.15
2022-11-16T00:47:36.174Z,12.17
2022-11-16T00:51:47.983Z,12.12
2022-11-16T00:55:59.607Z,12.14
2022-11-16T01:00:11.882Z,12.15
2022-11-16T01:04:23.523Z,12.11
2022-11-16T01:08:37.282Z,12.18
2022-11-16T01:12:50.775Z,12.16
2022-11-16T01:17:02.401Z,12.13
2022-11-16T01:21:14.048Z,12.14
2022-11-16T01:25:25.667Z,12.19
2022-11-16T01:29:37.543Z,12.17
2022-11-16T01:33:49.252Z,12.20
2022-11-16T01:38:08.507Z,12.17
2022-11-16T01:42:24.722Z,12.20
2022-11-16T01:46:39.633Z,12.18
2022-11-16T01:50:56.386Z,12.16
2022-11-16T01:55:08.581Z,12.15
2022-11-16T01:59:32.914Z,12.11
2022-11-16T02:03:44.700Z,12.12
2022-11-16T02:08:22.205Z,12.10
2022-11-16T02:12:50.534Z,12.05
2022-11-16T02:17:32.155Z,12.15
2022-11-16T02:21:58.581Z,12.13
2022-11-16T02:26:37.676Z,12.12
2022-11-16T02:30:53.755Z,12.12
2022-11-16T02:35:16.593Z,12.10
2022-11-16T02:39:32.285Z,12.10
2022-11-16T02:43:48.958Z,12.09
2022-11-16T02:48:08.506Z,12.07
2022-11-16T02:52:23.452Z,12.12
2022-11-16T02:56:50.225Z,12.09
2022-11-16T03:01:15.872Z,12.12
2022-11-16T03:05:36.696Z,12.11
2022-11-16T03:09:54.515Z,12.14
2022-11-16T03:14:11.802Z,12.13
2022-11-16T03:18:28.975Z,12.12
2022-11-16T03:22:50.474Z,12.16
2022-11-16T03:27:16.727Z,12.16
2022-11-16T03:31:34.670Z,12.15
2022-11-16T03:35:59.072Z,12.13
2022-11-16T03:40:12.607Z,12.16
2022-11-16T03:44:24.632Z,12.19
2022-11-16T03:48:38.631Z,12.22
2022-11-16T03:52:56.519Z,12.24
2022-11-16T03:57:09.704Z,12.29
2022-11-16T04:01:21.477Z,12.27
2022-11-16T04:05:53.582Z,12.32
2022-11-16T04:10:24.333Z,12.30
2022-11-16T04:14:54.557Z,12.25
2022-11-16T04:19:28.045Z,12.26
2022-11-16T04:23:58.624Z,12.27
2022-11-16T04:28:13.659Z,12.28
2022-11-16T04:32:48.187Z,12.22
2022-11-16T04:37:19.715Z,12.21
2022-11-16T04:41:52.390Z,12.23
2022-11-16T04:46:23.238Z,12.14
2022-11-16T04:50:35.023Z,12.09
2022-11-16T04:54:47.111Z,12.04
2022-11-16T04:58:58.623Z,11.95
2022-11-16T05:03:10.658Z,11.88
2022-11-16T05:07:23.772Z,11.91
2022-11-16T05:11:38.540Z,11.87
2022-11-16T05:15:50.264Z,11.88
2022-11-16T05:20:21.034Z,11.85
2022-11-16T05:24:36.293Z,11.82
2022-11-16T05:28:49.593Z,11.75
2022-11-16T05:33:01.279Z,11.68
2022-11-16T05:37:16.829Z,11.61
2022-11-16T05:41:29.513Z,11.61
2022-11-16T05:45:43.434Z,11.62
2022-11-16T05:49:57.605Z,11.51
2022-11-16T05:54:13.802Z,11.67
2022-11-16T05:58:25.635Z,11.69
2022-11-16T06:02:38.191Z,11.67
2022-11-16T06:06:49.827Z,11.65
2022-11-16T06:11:08.857Z,11.68
2022-11-16T06:15:21.556Z,11.64
2022-11-16T06:19:34.657Z,11.58
2022-11-16T06:23:47.303Z,11.52
2022-11-16T06:28:04.034Z,11.45
2022-11-16T06:32:18.574Z,11.28
2022-11-16T06:36:30.399Z,11.23
2022-11-16T06:40:43.008Z,11.14
2022-11-16T06:44:54.620Z,11.03
2022-11-16T06:49:11.164Z,10.95
2022-11-16T06:53:28.809Z,10.78
2022-11-16T06:57:41.490Z,10.65
2022-11-16T07:01:53.625Z,10.57
2022-11-16T07:06:10.496Z,10.47
2022-11-16T07:10:24.465Z,10.39
2022-11-16T07:14:37.427Z,10.28
2022-11-16T07:18:50.702Z,10.25
2022-11-16T07:23:03.360Z,10.17
2022-11-16T07:27:14.935Z,10.18
2022-11-16T07:31:30.077Z,10.14
2022-11-16T07:36:13.973Z,10.17
2022-11-16T07:40:25.650Z,10.26
2022-11-16T07:44:38.972Z,10.27
2022-11-16T07:48:54.301Z,10.40
2022-11-16T07:53:29.423Z,10.58
2022-11-16T07:57:41.482Z,10.62
2022-11-16T08:01:55.733Z,10.50
2022-11-16T08:06:13.194Z,10.70
2022-11-16T08:10:24.828Z,10.64
2022-11-16T08:14:36.561Z,10.50
2022-11-16T08:18:48.922Z,10.71
2022-11-16T08:23:01.442Z,10.76
2022-11-16T08:27:17.466Z,11.03
2022-11-16T08:31:32.347Z,11.99
2022-11-16T08:35:57.277Z,12.64
2022-11-16T08:40:10.794Z,12.90
2022-11-16T08:44:24.542Z,13.28
2022-11-16T08:48:39.131Z,13.11
2022-11-16T08:52:51.421Z,13.06
2022-11-16T08:57:03.504Z,13.30
2022-11-16T09:01:19.538Z,14.18
2022-11-16T09:05:31.056Z,14.99
2022-11-16T09:09:42.557Z,15.71
2022-11-16T09:13:55.639Z,16.29
2022-11-16T09:18:07.344Z,16.72
2022-11-16T09:22:19.033Z,17.15
2022-11-16T09:26:31.238Z,17.31
2022-11-16T09:30:44.197Z,17.45
2022-11-16T09:34:55.839Z,17.77
2022-11-16T09:39:29.648Z,17.98
2022-11-16T09:43:54.355Z,18.28
2022-11-16T09:48:12.103Z,18.36
2022-11-16T09:52:33.340Z,18.26
2022-11-16T09:56:47.655Z,18.42
2022-11-16T10:01:16.051Z,18.03
2022-11-16T10:05:43.684Z,17.70
2022-11-16T10:09:56.246Z,17.17
2022-11-16T10:14:26.083Z,16.82
2022-11-16T10:18:49.084Z,16.54
2022-11-16T10:23:06.987Z,16.43
2022-11-16T10:27:52.885Z,16.31
2022-11-16T10:32:17.834Z,16.42
2022-11-16T10:36:32.596Z,16.47
2022-11-16T10:40:49.646Z,16.50
2022-11-16T10:45:11.647Z,16.31
2022-11-16T10:49:35.940Z,16.44
2022-11-16T10:53:47.708Z,16.05
2022-11-16T10:58:05.291Z,15.81
2022-11-16T11:02:20.480Z,15.57
2022-11-16T11:06:32.114Z,15.76
2022-11-16T11:10:44.054Z,16.07
2022-11-16T11:15:26.182Z,16.34
2022-11-16T11:19:38.297Z,16.30
2022-11-16T11:23:52.934Z,16.29
2022-11-16T11:28:31.974Z,16.21
2022-11-16T11:32:44.748Z,16.51
2022-11-16T11:37:05.125Z,16.59
2022-11-16T11:41:19.012Z,16.93
2022-11-16T11:45:45.359Z,17.16
2022-11-16T11:50:18.624Z,17.24
2022-11-16T11:54:35.900Z,17.11
2022-11-16T11:58:48.599Z,16.81
2022-11-16T12:03:22.732Z,16.45
2022-11-16T12:08:07.271Z,16.39
2022-11-16T12:12:31.378Z,16.34
2022-11-16T12:17:04.602Z,16.10
2022-11-16T12:22:03.141Z,16.15
2022-11-16T12:26:41.162Z,15.84
2022-11-16T12:30:55.728Z,15.67
2022-11-16T12:35:41.587Z,15.54
2022-11-16T12:40:20.374Z,15.40
2022-11-16T12:45:09.541Z,15.52
2022-11-16T12:49:33.036Z,15.49
2022-11-16T12:54:10.736Z,15.29
2022-11-16T12:58:27.620Z,15.00
2022-11-16T13:03:12.872Z,14.93
2022-11-16T13:07:44.198Z,14.61
2022-11-16T13:12:00.577Z,14.38
2022-11-16T13:16:17.231Z,14.27
2022-11-16T13:20:40.156Z,14.17
2022-11-16T13:25:12.962Z,14.19
2022-11-16T13:29:50.713Z,14.20
2022-11-16T13:34:07.028Z,14.06
2022-11-16T13:38:54.701Z,13.95
2022-11-16T13:43:09.301Z,13.87
2022-11-16T13:47:25.387Z,13.87
2022-11-16T13:51:37.087Z,13.90
2022-11-16T13:55:58.521Z,13.75
2022-11-16T14:00:11.979Z,13.73
2022-11-16T14:04:39.385Z,13.84
2022-11-16T14:08:58.583Z,13.80
2022-11-16T14:13:36.391Z,14.03
2022-11-16T14:18:03.291Z,14.11
2022-11-16T14:22:45.538Z,14.15
2022-11-16T14:27:30.265Z,14.05
2022-11-16T14:31:57.531Z,14.07
2022-11-16T14:36:10.506Z,13.99
2022-11-16T14:40:22.233Z,13.92
2022-11-16T14:44:39.065Z,13.90
2022-11-16T14:48:51.025Z,13.89
2022-11-16T14:53:06.569Z,13.62
2022-11-16T14:57:23.844Z,13.65
2022-11-16T15:01:39.225Z,13.59
2022-11-16T15:05:51.084Z,13.61
2022-11-16T15:10:02.897Z,13.66
2022-11-16T15:14:18.678Z,13.65
2022-11-16T15:18:30.383Z,13.48
2022-11-16T15:22:44.974Z,13.30
2022-11-16T15:27:06.572Z,13.08
2022-11-16T15:31:20.908Z,12.89
2022-11-16T15:35:35.550Z,12.62
2022-11-16T15:39:47.154Z,12.59
2022-11-16T15:44:16.535Z,12.48
2022-11-16T15:48:29.816Z,12.42
2022-11-16T15:52:45.687Z,12.26
2022-11-16T15:57:09.572Z,12.20
2022-11-16T16:01:22.346Z,12.02
2022-11-16T16:05:39.172Z,12.02
2022-11-16T16:10:19.548Z,11.92
2022-11-16T16:14:31.595Z,11.84
2022-11-16T16:18:44.719Z,11.82
2022-11-16T16:23:12.993Z,11.72
2022-11-16T16:27:27.185Z,11.73
2022-11-16T16:31:38.740Z,11.59
2022-11-16T16:35:50.979Z,11.60
2022-11-16T16:40:02.677Z,11.55
2022-11-16T16:44:15.374Z,11.52
2022-11-16T16:48:26.928Z,11.45
2022-11-16T16:52:38.469Z,11.33
2022-11-16T16:56:50.243Z,11.26
2022-11-16T17:01:05.082Z,11.20
2022-11-16T17:05:16.803Z,11.20
2022-11-16T17:09:28.416Z,11.27
2022-11-16T17:13:39.951Z,11.18
2022-11-16T17:17:51.506Z,11.16
2022-11-16T17:22:03.245Z,11.24
2022-11-16T17:26:14.831Z,11.20
2022-11-16T17:30:26.415Z,11.30
2022-11-16T17:34:39.901Z,11.23
2022-11-16T17:38:51.466Z,11.31
2022-11-16T17:43:03.261Z,11.34
2022-11-16T17:47:14.871Z,11.32
2022-11-16T17:51:27.112Z,11.39
2022-11-16T17:55:38.628Z,11.33
2022-11-16T17:59:50.128Z,11.40
2022-11-16T18:04:02.540Z,11.20
2022-11-16T18:08:14.054Z,11.24
2022-11-16T18:12:25.602Z,11.21
2022-11-16T18:16:37.248Z,11.22
2022-11-16T18:20:50.787Z,11.26
2022-11-16T18:25:02.310Z,11.16
2022-11-16T18:29:16.193Z,11.18
2022-11-16T18:33:30.460Z,11.09
2022-11-16T18:37:42.507Z,11.05
2022-11-16T18:41:55.341Z,10.97
2022-11-16T18:46:07.746Z,10.99
2022-11-16T18:50:26.503Z,10.94
2022-11-16T18:54:38.448Z,10.88
2022-11-16T18:58:51.980Z,10.98
2022-11-16T19:03:09.890Z,10.97
2022-11-16T19:07:22.731Z,10.93
2022-11-16T19:11:34.389Z,10.91
2022-11-16T19:15:46.313Z,10.89
2022-11-16T19:19:57.826Z,10.97
2022-11-16T19:24:09.546Z,10.96
2022-11-16T19:28:21.053Z,10.90
2022-11-16T19:32:32.627Z,10.94
2022-11-16T19:36:44.178Z,10.90
2022-11-16T19:40:55.668Z,10.95
2022-11-16T19:45:07.598Z,10.98
2022-11-16T19:49:20.610Z,11.07
2022-11-16T19:53:32.916Z,10.99
2022-11-16T19:57:44.616Z,11.03
2022-11-16T20:01:56.104Z,11.04
2022-11-16T20:06:29.320Z,11.05
2022-11-16T20:10:40.892Z,11.05
2022-11-16T20:14:52.587Z,11.04
2022-11-16T20:19:04.673Z,11.06
2022-11-16T20:23:16.229Z,10.99
2022-11-16T20:27:27.776Z,10.93
2022-11-16T20:31:42.550Z,10.97
2022-11-16T20:36:00.398Z,11.06
2022-11-16T20:40:12.311Z,10.97
2022-11-16T20:44:23.960Z,10.90
2022-11-16T20:48:36.180Z,10.85
2022-11-16T20:52:52.561Z,10.86
2022-11-16T20:57:04.753Z,10.77
2022-11-16T21:01:28.444Z,10.85
2022-11-16T21:05:44.845Z,10.77
2022-11-16T21:10:14.915Z,10.76
2022-11-16T21:14:26.569Z,10.73
2022-11-16T21:18:39.200Z,10.77
2022-11-16T21:22:50.955Z,10.78
2022-11-16T21:27:02.505Z,10.76
2022-11-16T21:31:19.640Z,10.75
2022-11-16T21:35:31.135Z,10.73
2022-11-16T21:39:42.644Z,10.77
2022-11-16T21:43:54.384Z,10.70
2022-11-16T21:48:06.105Z,10.60
2022-11-16T21:52:17.587Z,10.67
2022-11-16T21:56:29.157Z,10.75
2022-11-16T22:00:40.693Z,10.68
2022-11-16T22:05:10.889Z,10.79
2022-11-16T22:09:22.422Z,10.71
2022-11-16T22:13:34.830Z,10.76
2022-11-16T22:17:46.696Z,10.69
2022-11-16T22:21:59.411Z,10.71
2022-11-16T22:26:12.449Z,10.84
2022-11-16T22:30:24.013Z,10.75
2022-11-16T22:34:35.857Z,10.84
2022-11-16T22:38:47.485Z,10.77
2022-11-16T22:42:59.496Z,10.90
2022-11-16T22:47:11.112Z,10.86
2022-11-16T22:51:26.943Z,10.90
2022-11-16T22:55:38.800Z,10.78
2022-11-16T22:59:50.307Z,10.82
2022-11-16T23:04:01.904Z,10.78
2022-11-16T23:08:13.434Z,10.73
2022-11-16T23:12:43.550Z,10.62
2022-11-16T23:16:55.346Z,10.59
2022-11-16T23:21:25.554Z,10.43
2022-11-16T23:25:55.919Z,10.41
2022-11-16T23:30:12.491Z,10.30
2022-11-16T23:34:24.769Z,10.28
2022-11-16T23:38:36.277Z,10.21
2022-11-16T23:43:06.343Z,10.20
2022-11-16T23:47:17.914Z,10.12
2022-11-16T23:51:29.432Z,10.20
2022-11-16T23:55:41.674Z,10.13
2022-11-16T23:59:53.265Z,10.17
